Main page
METAR-TAF:

METAR-TAF

Airports :

Palanga International Airport

Palanga, Lithuania

latitude: 55-55-12N, longitude: 021-03E, elevation: 10 m

Current weather observation

The report was made 13 minutes ago, at 02:20 UTC
Wind 4 kt from the East
Temperature 11°C
Humidity 71%
Pressure 1022 hPa
Visibility 10 km or more
no clouds below 1500 m and no cumulonimbus

METAR: EYPA 220220Z 09004KT CAVOK 11/06 Q1022

Time: 05:33 (02:33 UTC)

Forecast

The report was made 3 hours and 32 minutes ago, at 23:01 UTC
Forecast valid from 22 at 00 UTC to 22 at 24 UTC
Wind 5 kt from variable directions
Visibility: 9000 m
Temporary
from 22 at 05 UTC to 22 at 12 UTC
Broken clouds at a height of 3500 ft, Cumulonimbus.

TAF: EYPA 212301Z 2200/2224 VRB05KT 9000 NSC TEMPO 2205/2212 BKN035CB

Weather observations and forecasts of more than 4000 airports (METAR and TAF reports).

The available stations are represented by yellow and red dots on the map.

Hover mouse over dot to see the name of the station.

Then click to see weather observations and forecasts.

To change the map : click on the green buttons with a black cross to zoom in, on the green button with a dash to zoom out, or on the green arrows for adjacent maps.


METAR-TAF: